createdAt,value
2022-08-09T00:01:43.197Z,9.80
2022-08-09T00:04:34.857Z,15.05
2022-08-09T00:07:10.845Z,10.18
2022-08-09T00:09:40.111Z,11.68
2022-08-09T00:12:09.077Z,8.68
2022-08-09T00:14:56.598Z,10.20
2022-08-09T00:18:05.642Z,11.57
2022-08-09T00:20:13.575Z,11.80
2022-08-09T00:22:44.846Z,15.43
2022-08-09T00:25:14.231Z,15.30
2022-08-09T00:27:52.072Z,11.65
2022-08-09T00:30:26.147Z,14.32
2022-08-09T00:32:54.600Z,15.50
2022-08-09T00:35:23.983Z,10.93
2022-08-09T00:37:50.720Z,18.10
2022-08-09T00:40:19.736Z,17.05
2022-08-09T00:44:13.883Z,9.20
2022-08-09T00:45:34.997Z,12.02
2022-08-09T00:48:04.447Z,15.50
2022-08-09T00:50:34.130Z,12.63
2022-08-09T00:53:10.455Z,11.60
2022-08-09T00:56:03.748Z,10.45
2022-08-09T00:58:31.796Z,18.45
2022-08-09T01:01:00.431Z,11.85
2022-08-09T01:03:33.396Z,10.88
2022-08-09T01:06:13.927Z,10.55
2022-08-09T01:09:15.787Z,18.27
2022-08-09T01:12:03.565Z,11.23
2022-08-09T01:14:48.384Z,9.60
2022-08-09T01:17:30.517Z,12.20
2022-08-09T01:20:19.215Z,14.35
2022-08-09T01:24:00.961Z,13.40
2022-08-09T01:26:40.993Z,10.55
2022-08-09T01:29:12.482Z,14.75
2022-08-09T01:32:38.590Z,13.07
2022-08-09T01:34:35.685Z,14.68
2022-08-09T01:37:10.197Z,13.68
2022-08-09T01:39:44.602Z,18.02
2022-08-09T01:42:12.702Z,18.77
2022-08-09T01:44:42.249Z,15.18
2022-08-09T01:47:12.422Z,16.85
2022-08-09T01:49:41.413Z,20.00
2022-08-09T01:52:20.549Z,16.45
2022-08-09T01:54:56.744Z,11.80
2022-08-09T01:57:40.305Z,13.50
2022-08-09T02:00:34.901Z,16.13
2022-08-09T02:03:05.227Z,14.50
2022-08-09T02:05:53.605Z,11.90
2022-08-09T02:08:38.948Z,16.00
2022-08-09T02:11:17.483Z,16.35
2022-08-09T02:14:02.114Z,14.77
2022-08-09T02:16:53.008Z,13.27
2022-08-09T02:19:38.621Z,21.75
2022-08-09T02:22:16.868Z,17.98
2022-08-09T02:24:51.829Z,20.20
2022-08-09T02:27:43.168Z,18.08
2022-08-09T02:30:12.419Z,19.15
2022-08-09T02:32:46.065Z,14.52
2022-08-09T02:36:01.341Z,12.98
2022-08-09T02:38:27.949Z,13.77
2022-08-09T02:41:07.565Z,13.88
2022-08-09T02:43:42.416Z,18.13
2022-08-09T02:46:27.809Z,18.05
2022-08-09T02:49:01.767Z,15.80
2022-08-09T02:51:40.196Z,15.57
2022-08-09T02:54:13.864Z,17.20
2022-08-09T02:56:50.979Z,19.75
2022-08-09T02:59:26.387Z,19.08
2022-08-09T03:02:12.008Z,14.93
2022-08-09T03:04:42.432Z,17.58
2022-08-09T03:07:14.274Z,18.08
2022-08-09T03:09:54.180Z,19.90
2022-08-09T03:12:26.318Z,16.15
2022-08-09T03:14:56.647Z,20.75
2022-08-09T03:17:26.924Z,21.65
2022-08-09T03:20:02.830Z,18.07
2022-08-09T03:22:42.176Z,21.60
2022-08-09T03:25:27.012Z,20.38
2022-08-09T03:28:01.934Z,21.73
2022-08-09T03:30:34.266Z,18.88
2022-08-09T03:33:17.992Z,18.73
2022-08-09T03:36:13.314Z,16.95
2022-08-09T03:41:15.576Z,16.10
2022-08-09T03:44:02.906Z,15.80
2022-08-09T03:46:33.448Z,21.05
2022-08-09T03:49:04.276Z,22.42
2022-08-09T03:51:57.792Z,17.25
2022-08-09T03:54:32.141Z,15.00
2022-08-09T03:57:04.267Z,14.25
2022-08-09T03:59:54.228Z,15.63
2022-08-09T04:02:26.857Z,21.23
2022-08-09T04:05:06.239Z,14.00
2022-08-09T04:07:52.620Z,17.48
2022-08-09T04:10:28.390Z,15.73
2022-08-09T04:13:04.260Z,19.02
2022-08-09T04:15:52.450Z,17.67
2022-08-09T04:18:21.436Z,16.50
2022-08-09T04:20:48.911Z,17.35
2022-08-09T04:23:17.754Z,15.48
2022-08-09T04:25:49.751Z,18.15
2022-08-09T04:28:30.610Z,12.75
2022-08-09T04:31:09.343Z,13.27
2022-08-09T04:33:51.452Z,12.55
2022-08-09T04:36:21.254Z,12.98
2022-08-09T04:38:50.168Z,13.32
2022-08-09T04:41:16.764Z,15.00
2022-08-09T04:43:46.536Z,16.23
2022-08-09T04:46:57.699Z,15.60
2022-08-09T04:49:17.697Z,16.50
2022-08-09T04:51:57.013Z,14.73
2022-08-09T04:54:23.841Z,16.73
2022-08-09T04:56:50.613Z,17.00
2022-08-09T04:59:17.260Z,16.40
2022-08-09T05:01:47.805Z,11.45
2022-08-09T05:04:14.579Z,11.07
2022-08-09T05:06:44.166Z,19.15
2022-08-09T05:09:10.913Z,14.40
2022-08-09T05:11:39.586Z,9.68
2022-08-09T05:14:10.169Z,12.15
2022-08-09T05:16:58.098Z,14.32
2022-08-09T05:19:31.913Z,15.27
2022-08-09T05:22:35.737Z,13.30
2022-08-09T05:25:02.423Z,11.60
2022-08-09T05:27:30.231Z,12.45
2022-08-09T05:29:57.799Z,16.73
2022-08-09T05:33:12.221Z,14.90
2022-08-09T05:35:43.465Z,8.43
2022-08-09T05:38:22.131Z,15.02
2022-08-09T05:40:50.638Z,13.55
2022-08-09T05:43:17.688Z,12.70
2022-08-09T05:45:56.715Z,14.82
2022-08-09T05:49:02.018Z,14.70
2022-08-09T05:51:46.187Z,8.13
2022-08-09T05:54:13.140Z,16.85
2022-08-09T05:56:55.263Z,13.88
2022-08-09T05:59:23.543Z,11.45
2022-08-09T06:01:51.029Z,10.63
2022-08-09T06:04:25.521Z,13.63
2022-08-09T06:07:02.076Z,9.93
2022-08-09T06:09:55.106Z,14.73
2022-08-09T06:12:15.851Z,15.93
2022-08-09T06:14:43.828Z,14.95
2022-08-09T06:17:10.437Z,17.05
2022-08-09T06:19:37.118Z,11.25
2022-08-09T06:22:05.399Z,12.00
2022-08-09T06:24:41.561Z,16.83
2022-08-09T06:27:08.181Z,17.25
2022-08-09T06:29:48.264Z,22.08
2022-08-09T06:32:59.006Z,18.73
2022-08-09T06:35:11.235Z,11.98
2022-08-09T06:38:05.422Z,13.65
2022-08-09T06:40:25.151Z,9.57
2022-08-09T06:42:51.860Z,16.92
2022-08-09T06:46:05.526Z,16.77
2022-08-09T06:48:05.317Z,10.70
2022-08-09T06:50:32.052Z,13.98
2022-08-09T06:53:00.879Z,15.25
2022-08-09T06:55:32.062Z,18.75
2022-08-09T06:58:04.374Z,12.93
2022-08-09T07:00:51.496Z,13.30
2022-08-09T07:03:20.509Z,17.48
2022-08-09T07:06:03.966Z,17.42
2022-08-09T07:08:33.227Z,20.83
2022-08-09T07:11:03.387Z,17.02
2022-08-09T07:13:30.803Z,19.02
2022-08-09T07:18:58.775Z,8.70
2022-08-09T07:21:25.604Z,16.63
2022-08-09T07:23:57.844Z,15.85
2022-08-09T07:26:25.695Z,12.60
2022-08-09T07:29:01.312Z,10.77
2022-08-09T07:31:45.367Z,10.60
2022-08-09T07:34:20.261Z,12.48
2022-08-09T07:36:49.254Z,14.45
2022-08-09T07:39:20.193Z,14.48
2022-08-09T07:42:02.807Z,15.15
2022-08-09T07:44:32.827Z,14.40
2022-08-09T07:47:16.368Z,13.05
2022-08-09T07:50:05.159Z,11.00
2022-08-09T07:52:30.363Z,12.32
2022-08-09T07:54:57.530Z,17.52
2022-08-09T07:57:34.099Z,15.15
2022-08-09T08:00:04.398Z,13.38
2022-08-09T08:02:36.224Z,14.15
2022-08-09T08:05:18.504Z,13.85
2022-08-09T08:08:43.035Z,13.48
2022-08-09T08:10:34.278Z,14.73
2022-08-09T08:13:01.565Z,19.35
2022-08-09T08:15:35.522Z,19.60
2022-08-09T08:18:04.648Z,14.52
2022-08-09T08:20:33.165Z,20.65
2022-08-09T08:23:15.768Z,20.45
2022-08-09T08:25:46.679Z,18.27
2022-08-09T08:28:18.346Z,13.05
2022-08-09T08:31:01.556Z,16.13
2022-08-09T08:33:52.070Z,15.52
2022-08-09T08:36:28.256Z,17.73
2022-08-09T08:38:56.346Z,15.43
2022-08-09T08:41:24.596Z,14.38
2022-08-09T08:44:09.520Z,13.95
2022-08-09T08:46:59.633Z,15.10
2022-08-09T08:49:38.346Z,15.57
2022-08-09T08:52:24.403Z,14.98
2022-08-09T08:55:01.559Z,16.83
2022-08-09T08:57:30.787Z,13.43
2022-08-09T09:00:13.097Z,20.77
2022-08-09T09:02:52.688Z,16.55
2022-08-09T09:05:57.520Z,15.63
2022-08-09T09:08:29.894Z,14.93
2022-08-09T09:11:01.914Z,12.43
2022-08-09T09:13:41.541Z,18.20
2022-08-09T09:16:14.256Z,14.10
2022-08-09T09:18:45.844Z,17.05
2022-08-09T09:21:16.383Z,14.98
2022-08-09T09:23:58.161Z,13.60
2022-08-09T09:26:25.955Z,16.20
2022-08-09T09:29:03.761Z,18.92
2022-08-09T09:32:06.385Z,13.68
2022-08-09T09:34:25.665Z,13.68
2022-08-09T09:36:57.400Z,18.00
2022-08-09T09:39:50.412Z,19.00
2022-08-09T09:42:24.517Z,19.63
2022-08-09T09:44:57.893Z,21.33
2022-08-09T09:47:25.728Z,20.05
2022-08-09T09:50:14.387Z,20.15
2022-08-09T09:52:53.718Z,16.45
2022-08-09T09:55:32.489Z,13.57
2022-08-09T09:58:16.285Z,14.45
2022-08-09T10:00:54.836Z,17.73
2022-08-09T10:03:44.790Z,18.70
2022-08-09T10:06:23.905Z,18.52
2022-08-09T10:08:54.937Z,13.60
2022-08-09T10:11:59.862Z,14.27
2022-08-09T10:14:30.529Z,12.88
2022-08-09T10:17:23.853Z,20.58
2022-08-09T10:19:47.036Z,16.70
2022-08-09T10:22:32.699Z,12.65
2022-08-09T10:25:03.577Z,14.63
2022-08-09T10:27:45.330Z,13.23
2022-08-09T10:33:29.807Z,9.95
2022-08-09T10:36:01.306Z,11.55
2022-08-09T10:38:34.421Z,12.52
2022-08-09T10:41:18.727Z,12.32
2022-08-09T10:43:58.550Z,8.02
2022-08-09T10:46:52.592Z,11.20
2022-08-09T10:49:49.723Z,12.07
2022-08-09T10:53:00.022Z,9.75
2022-08-09T10:55:55.210Z,13.25
2022-08-09T10:58:44.023Z,9.88
2022-08-09T11:03:11.445Z,11.98
2022-08-09T11:04:30.581Z,11.07
2022-08-09T11:07:00.069Z,10.50
2022-08-09T11:09:41.372Z,10.07
2022-08-09T11:12:26.444Z,9.50
2022-08-09T11:14:57.970Z,12.32
2022-08-09T11:17:24.619Z,9.23
2022-08-09T11:20:22.580Z,11.88
2022-08-09T11:22:57.358Z,14.18
2022-08-09T11:25:45.031Z,10.15
2022-08-09T11:28:38.875Z,9.60
2022-08-09T11:31:50.357Z,7.28
2022-08-09T11:34:28.093Z,10.27
2022-08-09T11:36:59.820Z,8.18
2022-08-09T11:39:33.742Z,7.28
2022-08-09T11:42:09.247Z,8.90
2022-08-09T11:44:46.740Z,5.03
2022-08-09T11:47:14.565Z,5.82
2022-08-09T11:50:03.099Z,5.70
2022-08-09T11:53:58.070Z,7.00
2022-08-09T11:55:53.617Z,7.05
2022-08-09T11:58:33.609Z,8.73
2022-08-09T12:01:15.467Z,6.53
2022-08-09T12:04:08.965Z,9.13
2022-08-09T12:06:55.640Z,7.35
2022-08-09T12:09:27.686Z,5.60
2022-08-09T12:12:05.968Z,5.07
2022-08-09T12:14:59.071Z,8.20
2022-08-09T12:17:34.778Z,8.68
2022-08-09T12:20:23.204Z,13.20
2022-08-09T12:23:07.958Z,10.38
2022-08-09T12:25:38.446Z,9.77
2022-08-09T12:29:11.408Z,8.05
2022-08-09T12:31:58.465Z,7.68
2022-08-09T12:34:14.956Z,13.60
2022-08-09T12:36:59.064Z,13.48
2022-08-09T12:39:41.948Z,11.55
2022-08-09T12:42:16.390Z,7.72
2022-08-09T12:44:46.422Z,9.82
2022-08-09T12:47:22.724Z,7.03
2022-08-09T12:53:07.851Z,8.40
2022-08-09T12:56:14.859Z,9.68
2022-08-09T12:58:27.954Z,14.32
2022-08-09T13:00:55.890Z,9.07
2022-08-09T13:03:56.981Z,10.35
2022-08-09T13:06:43.984Z,8.95
2022-08-09T13:09:30.571Z,9.13
2022-08-09T13:12:03.484Z,13.43
2022-08-09T13:14:41.026Z,15.25
2022-08-09T13:17:43.673Z,11.98
2022-08-09T13:20:14.288Z,10.35
2022-08-09T13:23:04.750Z,11.30
2022-08-09T13:25:53.031Z,8.48
2022-08-09T13:28:33.680Z,8.65
2022-08-09T13:32:13.274Z,8.83
2022-08-09T13:33:53.740Z,19.63
2022-08-09T13:36:41.466Z,7.50
2022-08-09T13:41:18.841Z,13.13
2022-08-09T13:42:13.761Z,8.52
2022-08-09T13:44:42.867Z,8.23
2022-08-09T13:47:26.887Z,9.98
2022-08-09T13:50:18.123Z,8.40
2022-08-09T13:52:51.942Z,7.18
2022-08-09T13:55:21.123Z,7.35
2022-08-09T13:57:56.269Z,5.13
2022-08-09T14:00:28.634Z,10.55
2022-08-09T14:03:03.942Z,6.47
2022-08-09T14:05:59.406Z,10.18
2022-08-09T14:08:30.764Z,8.93
2022-08-09T14:11:00.282Z,11.27
2022-08-09T14:14:15.857Z,14.73
2022-08-09T14:16:19.923Z,12.20
2022-08-09T14:18:55.847Z,8.63
2022-08-09T14:21:25.731Z,6.05
2022-08-09T14:23:57.275Z,10.15
2022-08-09T14:26:32.165Z,8.25
2022-08-09T14:29:01.359Z,8.18
2022-08-09T14:31:36.242Z,6.88
2022-08-09T14:34:17.463Z,8.20
2022-08-09T14:36:55.097Z,9.05
2022-08-09T14:39:21.889Z,8.00
2022-08-09T14:42:08.560Z,9.43
2022-08-09T14:44:48.666Z,11.95
2022-08-09T14:47:31.269Z,8.05
2022-08-09T14:50:08.171Z,9.10
2022-08-09T14:52:37.975Z,7.50
2022-08-09T14:55:06.913Z,9.60
2022-08-09T14:57:43.416Z,9.55
2022-08-09T15:00:11.699Z,9.70
2022-08-09T15:02:38.877Z,6.10
2022-08-09T15:05:07.276Z,7.45
2022-08-09T15:07:35.381Z,6.43
2022-08-09T15:10:11.276Z,6.55
2022-08-09T15:12:44.883Z,8.45
2022-08-09T15:15:13.002Z,8.63
2022-08-09T15:17:41.475Z,8.85
2022-08-09T15:20:12.006Z,7.93
2022-08-09T15:23:03.205Z,8.80
2022-08-09T15:25:43.256Z,10.10
2022-08-09T15:28:26.205Z,15.40
2022-08-09T15:31:03.247Z,7.13
2022-08-09T15:34:18.117Z,8.03
2022-08-09T15:36:25.523Z,5.38
2022-08-09T15:38:56.467Z,8.40
2022-08-09T15:41:23.309Z,8.15
2022-08-09T15:44:00.252Z,7.93
2022-08-09T15:46:33.545Z,8.65
2022-08-09T15:49:22.755Z,16.02
2022-08-09T15:52:03.177Z,7.70
2022-08-09T15:54:44.875Z,7.72
2022-08-09T15:57:33.995Z,9.30
2022-08-09T16:00:14.079Z,10.38
2022-08-09T16:02:53.392Z,7.38
2022-08-09T16:05:22.482Z,11.40
2022-08-09T16:07:50.758Z,13.13
2022-08-09T16:10:55.883Z,9.45
2022-08-09T16:13:18.757Z,9.40
2022-08-09T16:16:09.954Z,19.85
2022-08-09T16:18:44.932Z,7.45
2022-08-09T16:21:12.235Z,16.25
2022-08-09T16:23:50.839Z,9.63
2022-08-09T16:26:33.537Z,13.93
2022-08-09T16:29:01.677Z,17.83
2022-08-09T16:32:20.545Z,16.25
2022-08-09T16:34:25.362Z,10.85
2022-08-09T16:36:52.925Z,11.98
2022-08-09T16:39:20.491Z,15.40
2022-08-09T16:42:03.788Z,8.10
2022-08-09T16:44:32.224Z,12.43
2022-08-09T16:47:04.067Z,9.40
2022-08-09T16:50:32.171Z,13.93
2022-08-09T16:52:33.391Z,12.50
2022-08-09T16:55:00.179Z,12.25
2022-08-09T16:57:27.015Z,11.25
2022-08-09T17:00:14.740Z,11.98
2022-08-09T17:02:42.780Z,10.57
2022-08-09T17:08:44.323Z,16.42
2022-08-09T17:10:34.240Z,15.60
2022-08-09T17:13:03.462Z,12.70
2022-08-09T17:15:58.853Z,17.02
2022-08-09T17:18:27.107Z,12.38
2022-08-09T17:20:57.084Z,12.95
2022-08-09T17:23:37.250Z,8.93
2022-08-09T17:26:10.583Z,12.23
2022-08-09T17:28:39.161Z,10.98
2022-08-09T17:31:06.081Z,12.38
2022-08-09T17:33:36.043Z,13.88
2022-08-09T17:36:05.027Z,12.85
2022-08-09T17:38:37.185Z,14.30
2022-08-09T17:41:05.935Z,8.52
2022-08-09T17:43:36.968Z,12.32
2022-08-09T17:46:07.587Z,15.32
2022-08-09T17:48:39.483Z,8.40
2022-08-09T17:51:17.268Z,13.30
2022-08-09T17:53:52.245Z,14.07
2022-08-09T17:56:27.080Z,11.25
2022-08-09T17:58:55.090Z,10.75
2022-08-09T18:01:23.286Z,13.38
2022-08-09T18:03:54.590Z,10.77
2022-08-09T18:06:31.740Z,13.43
2022-08-09T18:09:03.178Z,15.15
2022-08-09T18:11:32.199Z,14.07
2022-08-09T18:14:22.580Z,12.60
2022-08-09T18:16:50.007Z,14.45
2022-08-09T18:20:55.956Z,15.32
2022-08-09T18:22:03.890Z,12.02
2022-08-09T18:24:31.275Z,11.27
2022-08-09T18:26:58.223Z,11.80
2022-08-09T18:30:37.727Z,12.18
2022-08-09T18:32:14.831Z,12.57
2022-08-09T18:34:46.114Z,16.38
2022-08-09T18:37:47.294Z,11.80
2022-08-09T18:40:01.949Z,13.73
2022-08-09T18:42:31.257Z,13.35
2022-08-09T18:45:00.765Z,14.57
2022-08-09T18:47:32.710Z,12.55
2022-08-09T18:50:06.180Z,13.80
2022-08-09T18:55:04.961Z,12.05
2022-08-09T18:57:43.048Z,12.65
2022-08-09T19:00:16.734Z,11.25
2022-08-09T19:02:48.054Z,15.25
2022-08-09T19:05:20.720Z,13.90
2022-08-09T19:08:03.862Z,14.95
2022-08-09T19:10:39.385Z,14.45
2022-08-09T19:13:18.998Z,16.58
2022-08-09T19:15:49.947Z,13.95
2022-08-09T19:18:33.690Z,11.15
2022-08-09T19:21:08.878Z,10.85
2022-08-09T19:24:36.456Z,11.77
2022-08-09T19:26:31.127Z,12.38
2022-08-09T19:29:03.285Z,10.52
2022-08-09T19:31:44.309Z,15.20
2022-08-09T19:34:21.989Z,13.35
2022-08-09T19:36:51.599Z,14.05
2022-08-09T19:39:20.643Z,14.75
2022-08-09T19:41:56.283Z,13.98
2022-08-09T19:44:23.203Z,13.70
2022-08-09T19:46:53.649Z,12.45
2022-08-09T19:50:05.318Z,11.65
2022-08-09T19:52:10.085Z,14.15
2022-08-09T19:54:39.869Z,11.80
2022-08-09T19:57:08.542Z,13.38
2022-08-09T19:59:58.855Z,13.80
2022-08-09T20:04:18.114Z,12.73
2022-08-09T20:05:14.691Z,17.08
2022-08-09T20:07:59.204Z,15.80
2022-08-09T20:10:36.400Z,12.25
2022-08-09T20:13:06.363Z,15.48
2022-08-09T20:16:34.579Z,17.70
2022-08-09T20:18:22.464Z,16.75
2022-08-09T20:20:51.461Z,14.85
2022-08-09T20:23:23.091Z,12.43
2022-08-09T20:25:52.414Z,13.35
2022-08-09T20:28:28.087Z,20.10
2022-08-09T20:31:04.672Z,15.55
2022-08-09T20:33:38.996Z,16.35
2022-08-09T20:36:11.221Z,14.52
2022-08-09T20:39:17.220Z,18.52
2022-08-09T20:41:35.421Z,13.45
2022-08-09T20:44:10.498Z,14.65
2022-08-09T20:46:43.346Z,18.40
2022-08-09T20:49:12.934Z,13.07
2022-08-09T20:51:41.999Z,19.23
2022-08-09T20:54:16.442Z,17.27
2022-08-09T20:56:43.975Z,15.57
2022-08-09T20:59:17.058Z,15.43
2022-08-09T21:01:51.464Z,19.77
2022-08-09T21:05:55.221Z,20.30
2022-08-09T21:07:11.770Z,19.92
2022-08-09T21:15:14.354Z,19.08
2022-08-09T21:18:11.796Z,17.05
2022-08-09T21:20:29.867Z,19.55
2022-08-09T21:22:57.611Z,18.88
2022-08-09T21:25:43.954Z,19.27
2022-08-09T21:28:35.075Z,22.02
2022-08-09T21:31:13.676Z,20.08
2022-08-09T21:33:54.496Z,18.35
2022-08-09T21:36:28.016Z,17.98
2022-08-09T21:38:57.547Z,17.65
2022-08-09T21:42:03.781Z,17.77
2022-08-09T21:44:33.799Z,19.23
2022-08-09T21:47:07.394Z,19.33
2022-08-09T21:49:40.301Z,18.20
2022-08-09T21:52:14.634Z,24.55
2022-08-09T21:54:50.983Z,26.88
2022-08-09T21:57:39.532Z,20.27
2022-08-09T22:00:33.644Z,20.58
2022-08-09T22:03:19.131Z,19.38
2022-08-09T22:05:51.304Z,19.20
2022-08-09T22:08:24.439Z,18.77
2022-08-09T22:11:50.076Z,19.40
2022-08-09T22:13:43.534Z,19.67
2022-08-09T22:16:11.990Z,23.30
2022-08-09T22:18:53.000Z,21.67
2022-08-09T22:21:45.419Z,20.20
2022-08-09T22:24:17.258Z,22.55
2022-08-09T22:26:51.609Z,26.30
2022-08-09T22:29:19.414Z,19.38
2022-08-09T22:31:56.249Z,20.90
2022-08-09T22:34:26.796Z,19.15
2022-08-09T22:36:55.968Z,20.52
2022-08-09T22:39:58.028Z,19.92
2022-08-09T22:42:21.917Z,20.73
2022-08-09T22:45:00.108Z,21.65
2022-08-09T22:48:11.233Z,21.10
2022-08-09T22:50:32.660Z,23.00
2022-08-09T22:53:04.428Z,19.63
2022-08-09T22:58:33.104Z,21.90
2022-08-09T23:01:03.769Z,19.10
2022-08-09T23:04:04.733Z,20.10
2022-08-09T23:06:34.750Z,22.17
2022-08-09T23:09:06.205Z,20.45
2022-08-09T23:11:33.422Z,19.17
2022-08-09T23:14:03.072Z,16.17
2022-08-09T23:16:29.938Z,16.73
2022-08-09T23:19:00.104Z,22.50
2022-08-09T23:21:32.753Z,20.13
2022-08-09T23:24:06.039Z,19.58
2022-08-09T23:26:38.707Z,19.92
2022-08-09T23:29:08.172Z,20.15
2022-08-09T23:31:36.162Z,17.45
2022-08-09T23:34:04.223Z,19.90
2022-08-09T23:36:33.310Z,20.13
2022-08-09T23:39:04.278Z,18.67
2022-08-09T23:41:32.664Z,17.23
2022-08-09T23:44:02.460Z,25.90
2022-08-09T23:46:33.824Z,16.40
2022-08-09T23:49:01.941Z,20.65
2022-08-09T23:51:30.204Z,19.50
2022-08-09T23:54:02.882Z,27.40
2022-08-09T23:56:53.692Z,22.13
2022-08-09T23:59:21.579Z,19.38
